Terminal Aerodrome Forecast
Issued by NWS Charleston, WV

Current Version | Previous Version | Graphics & Text | Print | Product List | Glossary On
Versions: 1 2 3 4 5 6 7 8 9 10 11 12 13 14 15 16 17 18 19 20 21 22
310
FTUS41 KRLX 211500 AAA
TAFBKW
TAF AMD
KBKW 211500Z 2115/2212 28004KT P6SM SCT005 BKN017 OVC030
     FM211600 26006KT P6SM VCTS OVC010CB
     FM211900 29011KT P6SM BKN015
     FM212300 30008KT P6SM SCT020
     FM220600 30004KT P6SM SCT020 BKN035=

USA.gov is the U.S. government's official web portal to all federal, state and local government web resources and services.